sensor_id;sensor_type;location;lat;lon;timestamp;pressure;altitude;pressure_sealevel;temperature;humidity
11515;BME280;5814;41.936;25.556;2022-12-04T00:00:16;100387.17;;;7.03;100.00
11515;BME280;5814;41.936;25.556;2022-12-04T00:02:43;100386.31;;;7.02;100.00
11515;BME280;5814;41.936;25.556;2022-12-04T00:05:10;100383.23;;;6.95;100.00
11515;BME280;5814;41.936;25.556;2022-12-04T00:07:37;100389.37;;;7.07;100.00
11515;BME280;5814;41.936;25.556;2022-12-04T00:10:05;100385.21;;;6.74;100.00
11515;BME280;5814;41.936;25.556;2022-12-04T00:12:33;100378.30;;;6.74;100.00
11515;BME280;5814;41.936;25.556;2022-12-04T00:14:59;100380.94;;;6.78;100.00
11515;BME280;5814;41.936;25.556;2022-12-04T00:17:27;100393.55;;;6.89;100.00
11515;BME280;5814;41.936;25.556;2022-12-04T00:19:54;100387.98;;;6.95;100.00
11515;BME280;5814;41.936;25.556;2022-12-04T00:22:21;100386.50;;;6.74;100.00
11515;BME280;5814;41.936;25.556;2022-12-04T00:24:48;100387.02;;;6.83;100.00
11515;BME280;5814;41.936;25.556;2022-12-04T00:27:15;100387.52;;;6.91;100.00
11515;BME280;5814;41.936;25.556;2022-12-04T00:29:42;100394.49;;;6.97;100.00
11515;BME280;5814;41.936;25.556;2022-12-04T00:32:10;100388.84;;;6.96;100.00
11515;BME280;5814;41.936;25.556;2022-12-04T00:34:37;100391.37;;;6.86;100.00
11515;BME280;5814;41.936;25.556;2022-12-04T00:37:04;100395.23;;;6.83;100.00
11515;BME280;5814;41.936;25.556;2022-12-04T00:39:31;100391.41;;;6.90;100.00
11515;BME280;5814;41.936;25.556;2022-12-04T00:41:58;100384.00;;;6.83;100.00
11515;BME280;5814;41.936;25.556;2022-12-04T00:44:25;100387.05;;;6.85;100.00
11515;BME280;5814;41.936;25.556;2022-12-04T00:46:52;100387.31;;;6.66;100.00
11515;BME280;5814;41.936;25.556;2022-12-04T00:49:20;100387.69;;;6.63;100.00
11515;BME280;5814;41.936;25.556;2022-12-04T00:51:47;100382.20;;;6.76;100.00
11515;BME280;5814;41.936;25.556;2022-12-04T00:54:14;100388.33;;;6.87;100.00
11515;BME280;5814;41.936;25.556;2022-12-04T00:56:41;100390.94;;;6.85;100.00
11515;BME280;5814;41.936;25.556;2022-12-04T00:59:08;100373.54;;;6.74;100.00
11515;BME280;5814;41.936;25.556;2022-12-04T01:01:35;100381.95;;;6.46;100.00
11515;BME280;5814;41.936;25.556;2022-12-04T01:04:03;100393.77;;;6.63;100.00
11515;BME280;5814;41.936;25.556;2022-12-04T01:06:31;100390.39;;;6.74;100.00
11515;BME280;5814;41.936;25.556;2022-12-04T01:08:57;100380.02;;;6.74;100.00
11515;BME280;5814;41.936;25.556;2022-12-04T01:11:25;100392.17;;;6.78;100.00
11515;BME280;5814;41.936;25.556;2022-12-04T01:13:51;100388.30;;;6.81;100.00
11515;BME280;5814;41.936;25.556;2022-12-04T01:16:23;100392.00;;;6.58;100.00
11515;BME280;5814;41.936;25.556;2022-12-04T01:18:49;100386.02;;;6.66;100.00
11515;BME280;5814;41.936;25.556;2022-12-04T01:21:16;100384.39;;;6.78;100.00
11515;BME280;5814;41.936;25.556;2022-12-04T01:23:43;100391.80;;;6.85;100.00
11515;BME280;5814;41.936;25.556;2022-12-04T01:26:11;100377.98;;;6.89;100.00
11515;BME280;5814;41.936;25.556;2022-12-04T01:28:37;100385.65;;;6.73;100.00
11515;BME280;5814;41.936;25.556;2022-12-04T01:31:15;100380.47;;;6.77;100.00
11515;BME280;5814;41.936;25.556;2022-12-04T01:33:41;100383.16;;;6.85;100.00
11515;BME280;5814;41.936;25.556;2022-12-04T01:36:11;100387.16;;;6.99;100.00
11515;BME280;5814;41.936;25.556;2022-12-04T01:38:37;100388.04;;;7.03;100.00
11515;BME280;5814;41.936;25.556;2022-12-04T01:41:04;100387.77;;;6.69;100.00
11515;BME280;5814;41.936;25.556;2022-12-04T01:43:32;100383.09;;;6.79;100.00
11515;BME280;5814;41.936;25.556;2022-12-04T01:45:59;100381.82;;;6.80;100.00
11515;BME280;5814;41.936;25.556;2022-12-04T01:48:27;100388.23;;;6.74;100.00
11515;BME280;5814;41.936;25.556;2022-12-04T01:50:54;100382.28;;;6.86;100.00
11515;BME280;5814;41.936;25.556;2022-12-04T01:53:21;100376.80;;;7.02;100.00
11515;BME280;5814;41.936;25.556;2022-12-04T01:55:48;100378.25;;;6.70;100.00
11515;BME280;5814;41.936;25.556;2022-12-04T01:58:15;100375.69;;;6.71;100.00
11515;BME280;5814;41.936;25.556;2022-12-04T02:00:42;100370.20;;;6.88;100.00
11515;BME280;5814;41.936;25.556;2022-12-04T02:03:09;100374.94;;;6.85;100.00
11515;BME280;5814;41.936;25.556;2022-12-04T02:05:37;100375.30;;;6.79;100.00
11515;BME280;5814;41.936;25.556;2022-12-04T02:08:04;100374.44;;;6.79;100.00
11515;BME280;5814;41.936;25.556;2022-12-04T02:13:13;100376.61;;;6.78;100.00
11515;BME280;5814;41.936;25.556;2022-12-04T02:15:44;100377.00;;;6.74;100.00
11515;BME280;5814;41.936;25.556;2022-12-04T02:18:29;100369.19;;;6.73;100.00
11515;BME280;5814;41.936;25.556;2022-12-04T02:21:00;100352.30;;;6.67;100.00
11515;BME280;5814;41.936;25.556;2022-12-04T02:28:56;100354.94;;;6.71;100.00
11515;BME280;5814;41.936;25.556;2022-12-04T02:31:26;100363.65;;;6.82;100.00
11515;BME280;5814;41.936;25.556;2022-12-04T02:33:54;100369.73;;;6.83;100.00
11515;BME280;5814;41.936;25.556;2022-12-04T02:36:22;100369.23;;;6.77;100.00
11515;BME280;5814;41.936;25.556;2022-12-04T02:38:52;100371.42;;;6.78;100.00
11515;BME280;5814;41.936;25.556;2022-12-04T02:41:22;100367.12;;;6.80;100.00
11515;BME280;5814;41.936;25.556;2022-12-04T02:43:48;100366.59;;;6.73;100.00
11515;BME280;5814;41.936;25.556;2022-12-04T02:46:19;100367.23;;;6.96;100.00
11515;BME280;5814;41.936;25.556;2022-12-04T02:48:47;100365.48;;;6.92;100.00
11515;BME280;5814;41.936;25.556;2022-12-04T02:51:13;100371.08;;;6.90;100.00
11515;BME280;5814;41.936;25.556;2022-12-04T02:53:43;100364.13;;;6.85;100.00
11515;BME280;5814;41.936;25.556;2022-12-04T02:56:09;100360.27;;;6.91;100.00
11515;BME280;5814;41.936;25.556;2022-12-04T02:58:40;100365.75;;;6.75;100.00
11515;BME280;5814;41.936;25.556;2022-12-04T03:01:08;100368.39;;;6.78;100.00
11515;BME280;5814;41.936;25.556;2022-12-04T03:03:33;100370.03;;;6.70;100.00
11515;BME280;5814;41.936;25.556;2022-12-04T03:06:01;100361.45;;;6.76;100.00
11515;BME280;5814;41.936;25.556;2022-12-04T03:08:31;100371.94;;;6.92;100.00
11515;BME280;5814;41.936;25.556;2022-12-04T03:10:56;100363.66;;;6.81;100.00
11515;BME280;5814;41.936;25.556;2022-12-04T03:13:25;100365.35;;;6.76;100.00
11515;BME280;5814;41.936;25.556;2022-12-04T03:15:55;100370.53;;;6.76;100.00
11515;BME280;5814;41.936;25.556;2022-12-04T03:18:21;100378.19;;;6.61;100.00
11515;BME280;5814;41.936;25.556;2022-12-04T03:20:49;100368.33;;;6.71;100.00
11515;BME280;5814;41.936;25.556;2022-12-04T03:23:19;100369.69;;;6.79;100.00
11515;BME280;5814;41.936;25.556;2022-12-04T03:25:47;100370.47;;;6.69;100.00
11515;BME280;5814;41.936;25.556;2022-12-04T03:28:15;100367.81;;;6.63;100.00
11515;BME280;5814;41.936;25.556;2022-12-04T03:30:41;100370.34;;;6.54;100.00
11515;BME280;5814;41.936;25.556;2022-12-04T03:33:11;100373.41;;;6.60;100.00
11515;BME280;5814;41.936;25.556;2022-12-04T03:35:57;100372.17;;;6.67;100.00
11515;BME280;5814;41.936;25.556;2022-12-04T03:38:27;100383.89;;;6.72;100.00
11515;BME280;5814;41.936;25.556;2022-12-04T03:40:58;100369.20;;;6.72;100.00
11515;BME280;5814;41.936;25.556;2022-12-04T03:43:32;100367.30;;;6.52;100.00
11515;BME280;5814;41.936;25.556;2022-12-04T03:46:15;100367.41;;;6.65;100.00
11515;BME280;5814;41.936;25.556;2022-12-04T03:48:43;100375.59;;;6.62;100.00
11515;BME280;5814;41.936;25.556;2022-12-04T03:51:16;100376.20;;;6.84;100.00
11515;BME280;5814;41.936;25.556;2022-12-04T03:53:54;100387.70;;;6.61;100.00
11515;BME280;5814;41.936;25.556;2022-12-04T03:56:21;100389.53;;;6.74;100.00
11515;BME280;5814;41.936;25.556;2022-12-04T03:58:48;100384.82;;;6.79;100.00
11515;BME280;5814;41.936;25.556;2022-12-04T04:01:16;100387.10;;;6.93;100.00
11515;BME280;5814;41.936;25.556;2022-12-04T04:03:46;100388.45;;;6.86;100.00
11515;BME280;5814;41.936;25.556;2022-12-04T04:06:16;100386.48;;;6.72;100.00
11515;BME280;5814;41.936;25.556;2022-12-04T04:08:41;100384.28;;;6.67;100.00
11515;BME280;5814;41.936;25.556;2022-12-04T04:11:11;100377.04;;;6.79;100.00
11515;BME280;5814;41.936;25.556;2022-12-04T04:13:40;100382.34;;;6.93;100.00
11515;BME280;5814;41.936;25.556;2022-12-04T04:16:12;100382.28;;;6.86;100.00
11515;BME280;5814;41.936;25.556;2022-12-04T04:18:44;100379.55;;;6.70;100.00
11515;BME280;5814;41.936;25.556;2022-12-04T04:21:18;100386.98;;;6.78;100.00
11515;BME280;5814;41.936;25.556;2022-12-04T04:23:49;100381.44;;;6.88;100.00
11515;BME280;5814;41.936;25.556;2022-12-04T04:26:22;100375.78;;;6.84;100.00
11515;BME280;5814;41.936;25.556;2022-12-04T04:28:49;100381.50;;;6.96;100.00
11515;BME280;5814;41.936;25.556;2022-12-04T04:31:40;100386.55;;;6.78;100.00
11515;BME280;5814;41.936;25.556;2022-12-04T04:34:26;100388.19;;;6.69;100.00
11515;BME280;5814;41.936;25.556;2022-12-04T04:36:54;100387.00;;;6.81;100.00
11515;BME280;5814;41.936;25.556;2022-12-04T04:39:39;100381.55;;;7.03;100.00
11515;BME280;5814;41.936;25.556;2022-12-04T04:42:30;100389.87;;;7.18;100.00
11515;BME280;5814;41.936;25.556;2022-12-04T04:44:59;100397.49;;;6.96;100.00
11515;BME280;5814;41.936;25.556;2022-12-04T04:47:31;100388.39;;;6.94;100.00
11515;BME280;5814;41.936;25.556;2022-12-04T04:49:54;100386.61;;;6.85;100.00
11515;BME280;5814;41.936;25.556;2022-12-04T04:52:22;100389.23;;;6.88;100.00
11515;BME280;5814;41.936;25.556;2022-12-04T04:54:49;100388.69;;;6.77;100.00
11515;BME280;5814;41.936;25.556;2022-12-04T04:59:50;100401.19;;;6.71;100.00
11515;BME280;5814;41.936;25.556;2022-12-04T05:02:17;100387.86;;;6.83;100.00
11515;BME280;5814;41.936;25.556;2022-12-04T05:04:44;100398.84;;;6.99;100.00
11515;BME280;5814;41.936;25.556;2022-12-04T05:07:11;100395.34;;;6.95;100.00
11515;BME280;5814;41.936;25.556;2022-12-04T05:09:38;100396.03;;;6.77;100.00
11515;BME280;5814;41.936;25.556;2022-12-04T05:12:05;100401.19;;;6.71;100.00
11515;BME280;5814;41.936;25.556;2022-12-04T05:14:33;100403.03;;;6.86;100.00
11515;BME280;5814;41.936;25.556;2022-12-04T05:17:00;100382.64;;;6.76;100.00
11515;BME280;5814;41.936;25.556;2022-12-04T05:19:27;100399.16;;;6.86;100.00
11515;BME280;5814;41.936;25.556;2022-12-04T05:22:15;100400.46;;;6.89;100.00
11515;BME280;5814;41.936;25.556;2022-12-04T05:24:42;100398.22;;;6.79;100.00
11515;BME280;5814;41.936;25.556;2022-12-04T05:27:09;100411.15;;;6.74;100.00
11515;BME280;5814;41.936;25.556;2022-12-04T05:29:36;100408.14;;;6.76;100.00
11515;BME280;5814;41.936;25.556;2022-12-04T05:32:04;100401.31;;;6.85;100.00
11515;BME280;5814;41.936;25.556;2022-12-04T05:34:31;100394.48;;;6.98;100.00
11515;BME280;5814;41.936;25.556;2022-12-04T05:36:58;100400.13;;;7.00;100.00
11515;BME280;5814;41.936;25.556;2022-12-04T05:39:25;100418.61;;;6.85;100.00
11515;BME280;5814;41.936;25.556;2022-12-04T05:41:53;100419.75;;;6.69;100.00
11515;BME280;5814;41.936;25.556;2022-12-04T05:44:20;100419.98;;;6.95;100.00
11515;BME280;5814;41.936;25.556;2022-12-04T05:46:47;100409.09;;;6.86;100.00
11515;BME280;5814;41.936;25.556;2022-12-04T05:49:14;100404.90;;;7.03;100.00
11515;BME280;5814;41.936;25.556;2022-12-04T05:51:41;100415.05;;;6.73;100.00
11515;BME280;5814;41.936;25.556;2022-12-04T05:54:08;100421.55;;;6.76;100.00
11515;BME280;5814;41.936;25.556;2022-12-04T05:56:36;100422.56;;;6.93;100.00
11515;BME280;5814;41.936;25.556;2022-12-04T05:59:03;100428.11;;;6.87;100.00
11515;BME280;5814;41.936;25.556;2022-12-04T06:01:30;100423.36;;;6.85;100.00
11515;BME280;5814;41.936;25.556;2022-12-04T06:03:57;100424.98;;;6.73;100.00
11515;BME280;5814;41.936;25.556;2022-12-04T06:06:24;100435.12;;;6.96;100.00
11515;BME280;5814;41.936;25.556;2022-12-04T06:08:53;100443.38;;;7.00;100.00
11515;BME280;5814;41.936;25.556;2022-12-04T06:11:20;100430.53;;;7.17;100.00
11515;BME280;5814;41.936;25.556;2022-12-04T06:13:46;100430.63;;;7.28;100.00
11515;BME280;5814;41.936;25.556;2022-12-04T06:16:17;100434.00;;;7.17;100.00
11515;BME280;5814;41.936;25.556;2022-12-04T06:18:43;100431.00;;;7.22;100.00
11515;BME280;5814;41.936;25.556;2022-12-04T06:21:10;100437.59;;;7.33;100.00
11515;BME280;5814;41.936;25.556;2022-12-04T06:23:37;100429.84;;;7.42;100.00
11515;BME280;5814;41.936;25.556;2022-12-04T06:26:06;100438.48;;;7.38;100.00
11515;BME280;5814;41.936;25.556;2022-12-04T06:28:32;100443.92;;;7.15;100.00
11515;BME280;5814;41.936;25.556;2022-12-04T06:31:00;100447.74;;;7.05;100.00
11515;BME280;5814;41.936;25.556;2022-12-04T06:33:26;100455.88;;;6.95;100.00
11515;BME280;5814;41.936;25.556;2022-12-04T06:35:58;100457.30;;;7.09;100.00
11515;BME280;5814;41.936;25.556;2022-12-04T06:38:25;100456.66;;;7.39;100.00
11515;BME280;5814;41.936;25.556;2022-12-04T06:40:52;100460.52;;;7.33;100.00
11515;BME280;5814;41.936;25.556;2022-12-04T06:43:19;100464.27;;;7.18;100.00
11515;BME280;5814;41.936;25.556;2022-12-04T06:45:46;100443.83;;;7.02;100.00
11515;BME280;5814;41.936;25.556;2022-12-04T06:48:13;100463.02;;;7.22;100.00
11515;BME280;5814;41.936;25.556;2022-12-04T06:50:40;100463.55;;;7.33;100.00
11515;BME280;5814;41.936;25.556;2022-12-04T06:53:08;100468.95;;;7.08;100.00
11515;BME280;5814;41.936;25.556;2022-12-04T06:55:35;100476.77;;;7.10;100.00
11515;BME280;5814;41.936;25.556;2022-12-04T06:58:02;100473.38;;;7.20;100.00
11515;BME280;5814;41.936;25.556;2022-12-04T07:00:29;100468.21;;;7.22;100.00
11515;BME280;5814;41.936;25.556;2022-12-04T07:02:56;100473.01;;;7.27;100.00
11515;BME280;5814;41.936;25.556;2022-12-04T07:05:23;100465.60;;;7.19;100.00
11515;BME280;5814;41.936;25.556;2022-12-04T07:07:51;100469.73;;;6.98;100.00
11515;BME280;5814;41.936;25.556;2022-12-04T07:10:18;100471.39;;;6.91;100.00
11515;BME280;5814;41.936;25.556;2022-12-04T07:12:45;100474.59;;;7.06;100.00
11515;BME280;5814;41.936;25.556;2022-12-04T07:15:12;100471.73;;;7.29;100.00
11515;BME280;5814;41.936;25.556;2022-12-04T07:17:39;100467.59;;;7.01;100.00
11515;BME280;5814;41.936;25.556;2022-12-04T07:20:07;100454.19;;;7.00;100.00
11515;BME280;5814;41.936;25.556;2022-12-04T07:22:34;100467.80;;;7.24;100.00
11515;BME280;5814;41.936;25.556;2022-12-04T07:25:02;100471.97;;;7.05;100.00
11515;BME280;5814;41.936;25.556;2022-12-04T07:27:29;100466.05;;;7.22;100.00
11515;BME280;5814;41.936;25.556;2022-12-04T07:29:56;100468.03;;;6.99;100.00
11515;BME280;5814;41.936;25.556;2022-12-04T07:32:23;100474.47;;;6.96;100.00
11515;BME280;5814;41.936;25.556;2022-12-04T07:34:50;100465.38;;;6.96;100.00
11515;BME280;5814;41.936;25.556;2022-12-04T07:37:17;100477.61;;;7.07;100.00
11515;BME280;5814;41.936;25.556;2022-12-04T07:39:45;100471.14;;;7.10;100.00
11515;BME280;5814;41.936;25.556;2022-12-04T07:42:12;100474.27;;;7.21;100.00
11515;BME280;5814;41.936;25.556;2022-12-04T07:44:39;100485.41;;;7.10;100.00
11515;BME280;5814;41.936;25.556;2022-12-04T07:47:06;100486.23;;;7.05;100.00
11515;BME280;5814;41.936;25.556;2022-12-04T07:49:33;100491.88;;;7.08;100.00
11515;BME280;5814;41.936;25.556;2022-12-04T07:52:00;100489.67;;;7.02;100.00
11515;BME280;5814;41.936;25.556;2022-12-04T07:54:28;100484.50;;;7.06;100.00
11515;BME280;5814;41.936;25.556;2022-12-04T07:56:55;100496.39;;;7.30;100.00
11515;BME280;5814;41.936;25.556;2022-12-04T07:59:22;100494.10;;;7.16;100.00
11515;BME280;5814;41.936;25.556;2022-12-04T08:01:49;100499.89;;;7.34;100.00
11515;BME280;5814;41.936;25.556;2022-12-04T08:04:16;100500.66;;;7.21;100.00
11515;BME280;5814;41.936;25.556;2022-12-04T08:06:43;100498.44;;;7.14;100.00
11515;BME280;5814;41.936;25.556;2022-12-04T08:09:11;100496.70;;;7.16;100.00
11515;BME280;5814;41.936;25.556;2022-12-04T08:11:38;100500.51;;;7.05;100.00
11515;BME280;5814;41.936;25.556;2022-12-04T08:14:05;100495.02;;;7.20;100.00
11515;BME280;5814;41.936;25.556;2022-12-04T08:16:32;100488.63;;;7.31;100.00
11515;BME280;5814;41.936;25.556;2022-12-04T08:18:59;100494.36;;;7.46;100.00
11515;BME280;5814;41.936;25.556;2022-12-04T08:21:27;100496.83;;;7.28;100.00
11515;BME280;5814;41.936;25.556;2022-12-04T08:23:54;100497.22;;;7.24;100.00
11515;BME280;5814;41.936;25.556;2022-12-04T08:26:22;100495.11;;;7.31;100.00
11515;BME280;5814;41.936;25.556;2022-12-04T08:28:48;100493.75;;;7.24;100.00
11515;BME280;5814;41.936;25.556;2022-12-04T08:31:17;100495.17;;;7.38;100.00
11515;BME280;5814;41.936;25.556;2022-12-04T08:33:43;100492.08;;;7.32;100.00
11515;BME280;5814;41.936;25.556;2022-12-04T08:36:12;100491.55;;;7.20;100.00
11515;BME280;5814;41.936;25.556;2022-12-04T08:38:38;100491.31;;;6.92;100.00
11515;BME280;5814;41.936;25.556;2022-12-04T08:41:05;100492.70;;;7.02;100.00
11515;BME280;5814;41.936;25.556;2022-12-04T08:43:32;100487.20;;;7.17;100.00
11515;BME280;5814;41.936;25.556;2022-12-04T08:46:00;100486.98;;;6.94;100.00
11515;BME280;5814;41.936;25.556;2022-12-04T08:48:26;100490.43;;;6.90;100.00
11515;BME280;5814;41.936;25.556;2022-12-04T08:50:54;100487.33;;;6.84;100.00
11515;BME280;5814;41.936;25.556;2022-12-04T08:53:21;100477.09;;;6.98;100.00
11515;BME280;5814;41.936;25.556;2022-12-04T08:55:48;100482.30;;;6.99;100.00
11515;BME280;5814;41.936;25.556;2022-12-04T08:58:15;100481.45;;;7.03;100.00
11515;BME280;5814;41.936;25.556;2022-12-04T09:00:43;100476.63;;;6.96;100.00
11515;BME280;5814;41.936;25.556;2022-12-04T09:03:12;100477.16;;;7.05;100.00
11515;BME280;5814;41.936;25.556;2022-12-04T09:05:38;100479.80;;;7.09;100.00
11515;BME280;5814;41.936;25.556;2022-12-04T09:08:06;100478.03;;;7.08;100.00
11515;BME280;5814;41.936;25.556;2022-12-04T09:10:34;100481.07;;;7.06;100.00
11515;BME280;5814;41.936;25.556;2022-12-04T09:13:01;100472.97;;;7.23;100.00
11515;BME280;5814;41.936;25.556;2022-12-04T09:15:28;100461.62;;;7.11;100.00
11515;BME280;5814;41.936;25.556;2022-12-04T09:17:55;100467.97;;;7.45;100.00
11515;BME280;5814;41.936;25.556;2022-12-04T09:20:22;100479.05;;;7.24;100.00
11515;BME280;5814;41.936;25.556;2022-12-04T09:22:49;100479.15;;;7.35;100.00
11515;BME280;5814;41.936;25.556;2022-12-04T09:25:16;100481.58;;;7.18;100.00
11515;BME280;5814;41.936;25.556;2022-12-04T09:27:44;100481.36;;;7.43;100.00
11515;BME280;5814;41.936;25.556;2022-12-04T09:30:11;100461.63;;;7.70;100.00
11515;BME280;5814;41.936;25.556;2022-12-04T09:32:38;100458.53;;;7.61;100.00
11515;BME280;5814;41.936;25.556;2022-12-04T09:35:06;100459.02;;;7.67;100.00
11515;BME280;5814;41.936;25.556;2022-12-04T09:37:33;100463.64;;;7.45;100.00
11515;BME280;5814;41.936;25.556;2022-12-04T09:40:00;100457.54;;;7.41;100.00
11515;BME280;5814;41.936;25.556;2022-12-04T09:42:46;100458.35;;;7.34;100.00
11515;BME280;5814;41.936;25.556;2022-12-04T09:45:16;100448.89;;;7.40;100.00
11515;BME280;5814;41.936;25.556;2022-12-04T09:47:44;100453.61;;;7.37;100.00
11515;BME280;5814;41.936;25.556;2022-12-04T09:50:33;100444.09;;;7.36;100.00
11515;BME280;5814;41.936;25.556;2022-12-04T09:53:01;100440.80;;;7.63;100.00
11515;BME280;5814;41.936;25.556;2022-12-04T09:55:30;100433.91;;;7.66;100.00
11515;BME280;5814;41.936;25.556;2022-12-04T09:57:57;100416.14;;;7.65;100.00
11515;BME280;5814;41.936;25.556;2022-12-04T10:00:23;100421.34;;;7.68;100.00
11515;BME280;5814;41.936;25.556;2022-12-04T10:02:55;100426.41;;;7.42;100.00
11515;BME280;5814;41.936;25.556;2022-12-04T10:05:31;100427.27;;;7.43;100.00
11515;BME280;5814;41.936;25.556;2022-12-04T10:08:07;100424.84;;;7.73;100.00
11515;BME280;5814;41.936;25.556;2022-12-04T10:10:37;100402.13;;;7.39;100.00
11515;BME280;5814;41.936;25.556;2022-12-04T10:15:49;100404.28;;;7.37;100.00
11515;BME280;5814;41.936;25.556;2022-12-04T10:18:22;100407.78;;;7.44;100.00
11515;BME280;5814;41.936;25.556;2022-12-04T10:21:23;100406.46;;;7.39;100.00
11515;BME280;5814;41.936;25.556;2022-12-04T10:23:49;100400.28;;;7.18;100.00
11515;BME280;5814;41.936;25.556;2022-12-04T10:26:15;100390.03;;;7.38;100.00
11515;BME280;5814;41.936;25.556;2022-12-04T10:28:42;100386.20;;;7.53;100.00
11515;BME280;5814;41.936;25.556;2022-12-04T10:31:10;100393.00;;;7.32;100.00
11515;BME280;5814;41.936;25.556;2022-12-04T10:33:40;100389.20;;;7.45;100.00
11515;BME280;5814;41.936;25.556;2022-12-04T10:36:23;100394.06;;;7.62;100.00
11515;BME280;5814;41.936;25.556;2022-12-04T10:38:59;100379.53;;;7.21;100.00
11515;BME280;5814;41.936;25.556;2022-12-04T10:41:30;100382.28;;;7.48;100.00
11515;BME280;5814;41.936;25.556;2022-12-04T10:43:55;100387.09;;;7.59;100.00
11515;BME280;5814;41.936;25.556;2022-12-04T10:46:25;100382.73;;;7.54;100.00
11515;BME280;5814;41.936;25.556;2022-12-04T10:48:59;100379.27;;;7.50;100.00
11515;BME280;5814;41.936;25.556;2022-12-04T10:51:27;100382.64;;;7.36;100.00
11515;BME280;5814;41.936;25.556;2022-12-04T10:53:54;100386.93;;;7.29;100.00
11515;BME280;5814;41.936;25.556;2022-12-04T10:56:22;100380.50;;;7.42;100.00
11515;BME280;5814;41.936;25.556;2022-12-04T10:58:58;100376.68;;;7.50;100.00
11515;BME280;5814;41.936;25.556;2022-12-04T11:01:25;100377.97;;;7.51;100.00
11515;BME280;5814;41.936;25.556;2022-12-04T11:04:30;100367.06;;;7.37;100.00
11515;BME280;5814;41.936;25.556;2022-12-04T11:06:41;100367.52;;;7.38;100.00
11515;BME280;5814;41.936;25.556;2022-12-04T11:09:14;100361.06;;;7.46;100.00
11515;BME280;5814;41.936;25.556;2022-12-04T11:11:36;100354.63;;;7.54;100.00
11515;BME280;5814;41.936;25.556;2022-12-04T11:14:05;100346.75;;;7.39;100.00
11515;BME280;5814;41.936;25.556;2022-12-04T11:16:35;100358.09;;;7.55;100.00
11515;BME280;5814;41.936;25.556;2022-12-04T11:19:01;100364.57;;;7.52;100.00
11515;BME280;5814;41.936;25.556;2022-12-04T11:21:30;100362.95;;;7.76;100.00
11515;BME280;5814;41.936;25.556;2022-12-04T11:23:58;100362.03;;;7.65;100.00
11515;BME280;5814;41.936;25.556;2022-12-04T11:26:29;100356.78;;;7.52;100.00
11515;BME280;5814;41.936;25.556;2022-12-04T11:28:55;100350.73;;;7.59;100.00
11515;BME280;5814;41.936;25.556;2022-12-04T11:31:23;100349.43;;;7.59;100.00
11515;BME280;5814;41.936;25.556;2022-12-04T11:34:07;100346.00;;;7.62;100.00
11515;BME280;5814;41.936;25.556;2022-12-04T11:36:35;100342.52;;;7.61;100.00
11515;BME280;5814;41.936;25.556;2022-12-04T11:39:04;100340.75;;;7.50;100.00
11515;BME280;5814;41.936;25.556;2022-12-04T11:41:31;100344.22;;;7.53;100.00
11515;BME280;5814;41.936;25.556;2022-12-04T11:43:59;100344.71;;;7.61;100.00
11515;BME280;5814;41.936;25.556;2022-12-04T11:46:27;100348.61;;;7.67;100.00
11515;BME280;5814;41.936;25.556;2022-12-04T11:48:53;100336.57;;;7.83;100.00
11515;BME280;5814;41.936;25.556;2022-12-04T11:51:40;100344.75;;;7.74;100.00
11515;BME280;5814;41.936;25.556;2022-12-04T11:56:39;100344.19;;;7.45;100.00
11515;BME280;5814;41.936;25.556;2022-12-04T11:59:15;100334.19;;;7.39;100.00
11515;BME280;5814;41.936;25.556;2022-12-04T12:01:45;100336.73;;;7.29;100.00
11515;BME280;5814;41.936;25.556;2022-12-04T12:04:19;100331.16;;;7.39;100.00
11515;BME280;5814;41.936;25.556;2022-12-04T12:06:52;100324.55;;;7.13;100.00
11515;BME280;5814;41.936;25.556;2022-12-04T12:09:20;100324.58;;;7.19;100.00
11515;BME280;5814;41.936;25.556;2022-12-04T12:11:55;100322.48;;;7.31;100.00
11515;BME280;5814;41.936;25.556;2022-12-04T12:14:33;100306.08;;;7.42;100.00
11515;BME280;5814;41.936;25.556;2022-12-04T12:17:22;100322.20;;;7.68;100.00
11515;BME280;5814;41.936;25.556;2022-12-04T12:20:06;100316.56;;;7.62;100.00
11515;BME280;5814;41.936;25.556;2022-12-04T12:22:53;100316.88;;;7.40;100.00
11515;BME280;5814;41.936;25.556;2022-12-04T12:25:26;100317.38;;;7.48;100.00
11515;BME280;5814;41.936;25.556;2022-12-04T12:28:04;100317.69;;;7.26;100.00
11515;BME280;5814;41.936;25.556;2022-12-04T12:30:30;100319.53;;;7.48;100.00
11515;BME280;5814;41.936;25.556;2022-12-04T12:33:14;100307.42;;;7.50;100.00
11515;BME280;5814;41.936;25.556;2022-12-04T12:35:48;100308.77;;;7.63;100.00
11515;BME280;5814;41.936;25.556;2022-12-04T12:38:16;100305.80;;;7.80;100.00
11515;BME280;5814;41.936;25.556;2022-12-04T12:40:42;100313.20;;;7.97;100.00
11515;BME280;5814;41.936;25.556;2022-12-04T12:43:20;100323.20;;;8.08;100.00
11515;BME280;5814;41.936;25.556;2022-12-04T12:45:51;100317.09;;;7.76;100.00
11515;BME280;5814;41.936;25.556;2022-12-04T12:48:27;100314.02;;;7.76;100.00
11515;BME280;5814;41.936;25.556;2022-12-04T12:50:59;100320.50;;;7.75;100.00
11515;BME280;5814;41.936;25.556;2022-12-04T12:53:26;100319.26;;;7.85;100.00
11515;BME280;5814;41.936;25.556;2022-12-04T12:55:53;100324.50;;;8.00;100.00
11515;BME280;5814;41.936;25.556;2022-12-04T12:58:31;100322.77;;;8.14;100.00
11515;BME280;5814;41.936;25.556;2022-12-04T13:01:04;100327.09;;;8.06;100.00
11515;BME280;5814;41.936;25.556;2022-12-04T13:03:54;112497.60;;;-145.99;100.00
11515;BME280;5814;41.936;25.556;2022-12-04T13:06:25;112497.60;;;-145.99;100.00
11515;BME280;5814;41.936;25.556;2022-12-04T13:08:55;112497.60;;;-145.99;100.00
11515;BME280;5814;41.936;25.556;2022-12-04T13:11:21;112497.60;;;-145.99;100.00
11515;BME280;5814;41.936;25.556;2022-12-04T13:13:51;112497.60;;;-145.99;100.00
11515;BME280;5814;41.936;25.556;2022-12-04T13:16:23;112497.60;;;-145.99;100.00